Station History

Weather Underground - logo

Station Historical Data
Daily Summary for July 17, 2017 Units:  English    Metric   Both
« Previous Day
Next Day »
Daily Weekly Monthly Yearly Custom
  High: Low: Average:
Temperature: 103.8 °F 70.2 °F 87.5 °F
Dew Point: 69.2 °F 53.6 °F 62.3 °F
Humidity: 81 % 23 % 47 %
Wind Speed: 6.9 mph 0.0 mph 1.8 mph
Wind Gust: 6.9 mph - -
Wind:- - WSW
Pressure: 29.79 in 29.68 in -
Precipitation: 0.00 in    
Historical Graphs
 
 
Tabular Data for July 17, 2017
Time Temperature Dew Point Pressure Wind Wind Speed Wind Gust Humidity Rainfall Rate (Hourly)
00:03 78.4 °F 67.4 °F 29.74 in Calm     69 % 0.00 in
00:08 78.1 °F 67.9 °F 29.74 in Calm     71 % 0.00 in
00:13 77.7 °F 68.0 °F 29.74 in Calm     72 % 0.00 in
00:18 77.4 °F 68.5 °F 29.74 in Calm     74 % 0.00 in
00:23 77.2 °F 68.3 °F 29.74 in Calm     74 % 0.00 in
00:28 77.1 °F 68.2 °F 29.74 in Calm     74 % 0.00 in
00:33 77.0 °F 67.3 °F 29.74 in Calm     72 % 0.00 in
00:38 77.1 °F 66.1 °F 29.74 in SE 1.2 mph   69 % 0.00 in
00:43 77.4 °F 66.0 °F 29.74 in Calm     68 % 0.00 in
00:48 77.8 °F 65.5 °F 29.74 in ESE 1.2 mph 1.2 mph 66 % 0.00 in
00:53 77.8 °F 65.1 °F 29.74 in Calm     65 % 0.00 in
00:58 77.6 °F 66.2 °F 29.74 in Calm     68 % 0.00 in
01:03 77.3 °F 65.9 °F 29.74 in Calm     68 % 0.00 in
01:08 77.1 °F 65.3 °F 29.74 in Calm     67 % 0.00 in
01:13 76.9 °F 65.5 °F 29.74 in Calm     68 % 0.00 in
01:18 76.7 °F 65.3 °F 29.74 in Calm     68 % 0.00 in
01:23 76.7 °F 65.3 °F 29.74 in SE 1.2 mph   68 % 0.00 in
01:28 76.6 °F 65.2 °F 29.74 in Calm     68 % 0.00 in
01:29 76.6 °F 65.7 °F 29.74 in Calm     69 % 0.00 in
01:34 76.3 °F 65.4 °F 29.74 in Calm     69 % 0.00 in
01:39 76.1 °F 65.6 °F 29.74 in SE 1.2 mph 1.2 mph 70 % 0.00 in
01:44 75.9 °F 65.4 °F 29.74 in SE 2.3 mph 2.3 mph 70 % 0.00 in
01:49 75.8 °F 65.3 °F 29.74 in Calm     70 % 0.00 in
01:54 75.8 °F 65.3 °F 29.74 in SE 1.2 mph 1.2 mph 70 % 0.00 in
01:59 75.8 °F 65.3 °F 29.74 in Calm     70 % 0.00 in
02:04 75.8 °F 64.9 °F 29.74 in SE 1.2 mph   69 % 0.00 in
02:09 75.9 °F 65.0 °F 29.74 in Calm     69 % 0.00 in
02:14 75.8 °F 64.9 °F 29.74 in Calm     69 % 0.00 in
02:19 75.8 °F 64.9 °F 29.74 in Calm     69 % 0.00 in
02:24 75.6 °F 64.3 °F 29.74 in Calm     68 % 0.00 in
02:29 75.8 °F 64.1 °F 29.73 in Calm     67 % 0.00 in
02:34 75.9 °F 64.6 °F 29.74 in Calm     68 % 0.00 in
02:39 76.0 °F 64.2 °F 29.74 in Calm     67 % 0.00 in
02:44 75.9 °F 63.7 °F 29.74 in Calm     66 % 0.00 in
02:49 76.0 °F 64.2 °F 29.73 in Calm     67 % 0.00 in
02:54 75.9 °F 63.7 °F 29.73 in SE 1.2 mph   66 % 0.00 in
02:59 75.8 °F 63.6 °F 29.73 in Calm     66 % 0.00 in
03:04 75.8 °F 63.6 °F 29.73 in Calm     66 % 0.00 in
03:09 75.5 °F 63.8 °F 29.73 in Calm     67 % 0.00 in
03:14 75.2 °F 63.5 °F 29.73 in Calm     67 % 0.00 in
03:19 75.1 °F 63.8 °F 29.73 in Calm     68 % 0.00 in
03:24 74.9 °F 64.0 °F 29.73 in Calm     69 % 0.00 in
03:29 74.6 °F 63.3 °F 29.73 in Calm     68 % 0.00 in
03:34 74.5 °F 63.2 °F 29.73 in Calm     68 % 0.00 in
03:39 74.4 °F 63.6 °F 29.73 in Calm     69 % 0.00 in
03:44 74.3 °F 63.9 °F 29.73 in Calm     70 % 0.00 in
03:49 74.2 °F 64.2 °F 29.73 in Calm     71 % 0.00 in
03:54 74.0 °F 64.0 °F 29.73 in Calm     71 % 0.00 in
03:59 74.0 °F 64.4 °F 29.73 in Calm     72 % 0.00 in
04:04 73.7 °F 64.1 °F 29.73 in Calm     72 % 0.00 in
04:10 73.5 °F 64.3 °F 29.73 in Calm     73 % 0.00 in
04:15 73.3 °F 64.5 °F 29.73 in Calm     74 % 0.00 in
04:20 73.2 °F 64.0 °F 29.73 in ESE 1.2 mph 1.2 mph 73 % 0.00 in
04:25 73.1 °F 64.3 °F 29.73 in ESE 1.2 mph   74 % 0.00 in
04:30 73.1 °F 63.9 °F 29.73 in Calm     73 % 0.00 in
04:35 73.2 °F 64.0 °F 29.73 in Calm     73 % 0.00 in
04:40 73.1 °F 63.9 °F 29.73 in Calm   0.1 mph 73 % 0.00 in
04:45 72.8 °F 63.6 °F 29.73 in Calm     73 % 0.00 in
04:50 72.6 °F 63.4 °F 29.73 in Calm     73 % 0.00 in
04:55 72.5 °F 63.4 °F 29.73 in Calm     73 % 0.00 in
05:00 72.7 °F 63.1 °F 29.74 in Calm     72 % 0.00 in
05:05 72.7 °F 63.9 °F 29.73 in Calm     74 % 0.00 in
05:10 72.6 °F 64.6 °F 29.74 in Calm     76 % 0.00 in
05:15 72.4 °F 64.4 °F 29.74 in Calm     76 % 0.00 in
05:20 72.1 °F 63.7 °F 29.74 in Calm     75 % 0.00 in
05:25 72.0 °F 64.0 °F 29.74 in Calm     76 % 0.00 in
05:30 71.8 °F 63.4 °F 29.74 in Calm     75 % 0.00 in
05:35 71.6 °F 63.6 °F 29.74 in Calm     76 % 0.00 in
05:40 71.3 °F 63.3 °F 29.74 in Calm     76 % 0.00 in
05:45 71.1 °F 63.1 °F 29.75 in Calm     76 % 0.00 in
05:50 70.9 °F 63.7 °F 29.75 in Calm     78 % 0.00 in
05:55 70.7 °F 63.5 °F 29.75 in Calm     78 % 0.00 in
06:00 70.5 °F 63.3 °F 29.75 in Calm     78 % 0.00 in
06:05 70.4 °F 63.6 °F 29.75 in Calm     79 % 0.00 in
06:10 70.3 °F 63.5 °F 29.76 in Calm     79 % 0.00 in
06:15 70.2 °F 63.4 °F 29.76 in Calm     79 % 0.00 in
06:20 70.2 °F 63.7 °F 29.76 in Calm     80 % 0.00 in
06:25 70.3 °F 63.8 °F 29.76 in Calm     80 % 0.00 in
06:30 70.3 °F 63.8 °F 29.76 in Calm     80 % 0.00 in
06:35 70.6 °F 64.5 °F 29.76 in Calm     81 % 0.00 in
06:40 71.0 °F 64.9 °F 29.76 in Calm     81 % 0.00 in
06:45 71.4 °F 64.5 °F 29.76 in Calm     79 % 0.00 in
06:50 71.6 °F 64.7 °F 29.77 in Calm     79 % 0.00 in
06:55 72.0 °F 63.6 °F 29.77 in Calm     75 % 0.00 in
07:00 72.9 °F 63.7 °F 29.77 in Calm     73 % 0.00 in
07:06 73.8 °F 64.2 °F 29.77 in Calm     72 % 0.00 in
07:11 74.7 °F 63.9 °F 29.77 in Calm     69 % 0.00 in
07:16 75.7 °F 63.5 °F 29.77 in Calm     66 % 0.00 in
07:21 76.4 °F 64.6 °F 29.77 in Calm     67 % 0.00 in
07:27 77.0 °F 64.8 °F 29.78 in Calm     66 % 0.00 in
07:32 77.5 °F 65.7 °F 29.78 in Calm     67 % 0.00 in
07:37 78.2 °F 65.5 °F 29.78 in Calm     65 % 0.00 in
07:42 79.0 °F 66.7 °F 29.78 in Calm     66 % 0.00 in
07:47 79.7 °F 66.0 °F 29.78 in SSE 1.2 mph 1.2 mph 63 % 0.00 in
07:52 80.2 °F 66.0 °F 29.78 in Calm     62 % 0.00 in
07:57 80.7 °F 65.0 °F 29.78 in ESE 1.2 mph 1.2 mph 59 % 0.00 in
08:02 81.2 °F 64.5 °F 29.78 in SSE 1.2 mph 1.2 mph 57 % 0.00 in
08:07 81.6 °F 64.4 °F 29.78 in Calm     56 % 0.00 in
08:12 81.9 °F 62.5 °F 29.78 in Calm     52 % 0.00 in
08:17 82.5 °F 64.2 °F 29.78 in ESE 1.2 mph   54 % 0.00 in
08:22 83.0 °F 64.1 °F 29.79 in ESE 1.2 mph   53 % 0.00 in
08:27 83.5 °F 62.9 °F 29.78 in SE 2.3 mph 2.3 mph 50 % 0.00 in
08:32 83.6 °F 64.1 °F 29.79 in SSE 1.2 mph 1.2 mph 52 % 0.00 in
08:37 83.5 °F 64.0 °F 29.78 in South 1.2 mph   52 % 0.00 in
08:42 83.7 °F 63.1 °F 29.78 in Calm     50 % 0.00 in
08:47 84.3 °F 62.5 °F 29.78 in ESE 1.2 mph   48 % 0.00 in
08:52 84.6 °F 59.6 °F 29.78 in SE 2.3 mph 2.3 mph 43 % 0.00 in
08:57 84.9 °F 58.6 °F 29.78 in SSE 3.5 mph 3.5 mph 41 % 0.00 in
09:02 84.9 °F 59.2 °F 29.78 in ESE 2.3 mph 2.3 mph 42 % 0.00 in
09:07 85.0 °F 61.9 °F 29.78 in SE 2.0 mph 2.0 mph 46 % 0.00 in
09:12 85.4 °F 60.4 °F 29.78 in SSE 2.3 mph 2.3 mph 43 % 0.00 in
09:17 85.6 °F 60.5 °F 29.78 in SE 2.0 mph 2.0 mph 43 % 0.00 in
09:22 85.7 °F 60.0 °F 29.78 in ENE 3.5 mph 3.5 mph 42 % 0.00 in
09:27 85.6 °F 60.5 °F 29.78 in SSE 1.2 mph 1.2 mph 43 % 0.00 in
09:32 85.9 °F 62.1 °F 29.78 in Calm     45 % 0.00 in
09:37 86.4 °F 62.5 °F 29.78 in SE 2.3 mph 2.3 mph 45 % 0.00 in
09:42 86.8 °F 62.3 °F 29.78 in North 2.3 mph 2.3 mph 44 % 0.00 in
09:47 87.1 °F 62.5 °F 29.78 in South 1.2 mph 1.2 mph 44 % 0.00 in
09:52 87.7 °F 61.8 °F 29.78 in SE 1.2 mph   42 % 0.00 in
09:57 88.1 °F 62.8 °F 29.78 in SE 2.3 mph 2.3 mph 43 % 0.00 in
10:02 88.2 °F 64.2 °F 29.78 in North 1.2 mph   45 % 0.00 in
10:07 88.5 °F 62.5 °F 29.78 in South 3.5 mph 3.5 mph 42 % 0.00 in
10:12 88.6 °F 60.5 °F 29.78 in SE 3.5 mph 3.5 mph 39 % 0.00 in
10:17 89.1 °F 60.9 °F 29.78 in South 1.2 mph 1.2 mph 39 % 0.00 in
10:18 89.2 °F 60.3 °F 29.78 in SE 1.2 mph 1.2 mph 38 % 0.00 in
10:23 89.5 °F 62.0 °F 29.78 in SSE 1.2 mph 1.2 mph 40 % 0.00 in
10:28 89.7 °F 61.5 °F 29.78 in ESE 3.5 mph 3.5 mph 39 % 0.00 in
10:33 89.7 °F 60.0 °F 29.78 in NE 2.3 mph 2.3 mph 37 % 0.00 in
10:38 89.9 °F 60.9 °F 29.78 in East 3.0 mph 3.0 mph 38 % 0.00 in
10:43 90.0 °F 61.7 °F 29.78 in ESE 2.3 mph 2.3 mph 39 % 0.00 in
10:48 90.3 °F 62.0 °F 29.78 in NW 2.3 mph 2.3 mph 39 % 0.00 in
10:53 90.8 °F 60.9 °F 29.78 in WNW 2.3 mph 2.3 mph 37 % 0.00 in
10:58 91.1 °F 61.2 °F 29.78 in South 3.5 mph 3.5 mph 37 % 0.00 in
11:03 91.5 °F 61.6 °F 29.78 in SSE 2.3 mph 2.3 mph 37 % 0.00 in
11:08 91.8 °F 61.0 °F 29.78 in SW 2.3 mph 2.3 mph 36 % 0.00 in
11:13 92.0 °F 59.6 °F 29.78 in SE 3.5 mph 3.5 mph 34 % 0.00 in
11:18 92.2 °F 61.4 °F 29.78 in NNE 2.3 mph 2.3 mph 36 % 0.00 in
11:23 92.7 °F 64.1 °F 29.78 in SSE 2.0 mph 2.0 mph 39 % 0.00 in
11:28 92.9 °F 62.0 °F 29.78 in SSE 2.3 mph 2.3 mph 36 % 0.00 in
11:33 93.1 °F 62.2 °F 29.78 in ESE 3.0 mph 3.0 mph 36 % 0.00 in
11:38 93.2 °F 63.8 °F 29.78 in SE 3.5 mph 3.5 mph 38 % 0.00 in
11:43 93.4 °F 60.8 °F 29.78 in NNW 3.5 mph 3.5 mph 34 % 0.00 in
11:48 93.7 °F 62.7 °F 29.78 in NE 2.3 mph 2.3 mph 36 % 0.00 in
11:53 94.0 °F 61.4 °F 29.78 in ESE 3.5 mph 3.5 mph 34 % 0.00 in
11:58 94.2 °F 63.2 °F 29.77 in SE 2.3 mph 2.3 mph 36 % 0.00 in
12:03 94.6 °F 62.7 °F 29.77 in SSE 2.3 mph 2.3 mph 35 % 0.00 in
12:04 94.7 °F 64.4 °F 29.77 in SSW 2.3 mph 2.3 mph 37 % 0.00 in
12:09 95.1 °F 62.3 °F 29.77 in NW 5.0 mph 5.0 mph 34 % 0.00 in
12:14 95.0 °F 62.2 °F 29.77 in SSW 3.5 mph 3.5 mph 34 % 0.00 in
12:19 95.6 °F 64.4 °F 29.77 in ENE 2.3 mph 2.3 mph 36 % 0.00 in
12:24 95.7 °F 63.7 °F 29.77 in ESE 2.3 mph 2.3 mph 35 % 0.00 in
12:29 95.9 °F 65.4 °F 29.77 in East 3.5 mph 3.5 mph 37 % 0.00 in
12:34 96.0 °F 67.8 °F 29.77 in South 1.2 mph 1.2 mph 40 % 0.00 in
12:39 96.6 °F 65.3 °F 29.77 in West 2.3 mph 2.3 mph 36 % 0.00 in
12:44 97.0 °F 64.8 °F 29.77 in NW 3.5 mph 3.5 mph 35 % 0.00 in
12:49 97.0 °F 63.1 °F 29.77 in NW 2.3 mph 2.3 mph 33 % 0.00 in
12:54 97.1 °F 64.9 °F 29.77 in WNW 2.3 mph 2.3 mph 35 % 0.00 in
12:59 97.5 °F 65.2 °F 29.76 in NW 1.2 mph 1.2 mph 35 % 0.00 in
13:04 98.0 °F 64.0 °F 29.76 in West 4.0 mph 4.0 mph 33 % 0.00 in
13:09 97.8 °F 63.8 °F 29.76 in WNW 1.2 mph 1.2 mph 33 % 0.00 in
13:14 97.5 °F 65.2 °F 29.76 in SE 2.3 mph 2.3 mph 35 % 0.00 in
13:19 98.2 °F 65.0 °F 29.76 in SE 3.5 mph 3.5 mph 34 % 0.00 in
13:24 98.6 °F 65.4 °F 29.75 in SE 2.3 mph 2.3 mph 34 % 0.00 in
13:29 98.7 °F 62.8 °F 29.75 in NW 3.5 mph 3.5 mph 31 % 0.00 in
13:34 98.8 °F 64.7 °F 29.75 in SSE 2.3 mph 2.3 mph 33 % 0.00 in
13:39 99.1 °F 64.1 °F 29.75 in NW 2.3 mph 2.3 mph 32 % 0.00 in
13:44 99.0 °F 64.9 °F 29.75 in SE 2.3 mph 2.3 mph 33 % 0.00 in
13:49 99.2 °F 66.7 °F 29.75 in SE 1.2 mph 1.2 mph 35 % 0.00 in
13:54 99.5 °F 64.4 °F 29.75 in NNW 2.3 mph 2.3 mph 32 % 0.00 in
13:59 99.9 °F 66.5 °F 29.75 in ESE 1.2 mph 1.2 mph 34 % 0.00 in
14:04 100.3 °F 66.0 °F 29.75 in East 3.5 mph 3.5 mph 33 % 0.00 in
14:09 100.6 °F 63.5 °F 29.75 in East 1.2 mph 1.2 mph 30 % 0.00 in
14:14 100.4 °F 66.1 °F 29.74 in SE 3.5 mph 3.5 mph 33 % 0.00 in
14:19 100.2 °F 64.1 °F 29.74 in NW 2.3 mph 2.3 mph 31 % 0.00 in
14:24 100.1 °F 64.0 °F 29.74 in SW 1.2 mph 1.2 mph 31 % 0.00 in
14:29 100.6 °F 66.3 °F 29.74 in NE 2.0 mph 2.0 mph 33 % 0.00 in
14:34 100.6 °F 65.4 °F 29.74 in West 2.3 mph 2.3 mph 32 % 0.00 in
14:39 100.7 °F 68.0 °F 29.74 in East 1.2 mph 1.2 mph 35 % 0.00 in
14:44 100.7 °F 68.9 °F 29.74 in NW 2.3 mph 2.3 mph 36 % 0.00 in
14:49 101.1 °F 69.2 °F 29.73 in NNE 1.2 mph 1.2 mph 36 % 0.00 in
14:54 101.6 °F 68.0 °F 29.73 in NE 1.2 mph 1.2 mph 34 % 0.00 in
14:59 102.1 °F 66.7 °F 29.73 in NNE 3.0 mph 3.0 mph 32 % 0.00 in
15:04 102.0 °F 66.6 °F 29.73 in SSW 2.3 mph 2.3 mph 32 % 0.00 in
15:09 102.0 °F 67.5 °F 29.72 in SE 1.2 mph 1.2 mph 33 % 0.00 in
15:14 102.4 °F 63.1 °F 29.72 in NW 2.3 mph 2.3 mph 28 % 0.00 in
15:19 102.5 °F 65.2 °F 29.72 in West 1.2 mph 1.2 mph 30 % 0.00 in
15:24 103.3 °F 66.8 °F 29.72 in South 1.2 mph 1.2 mph 31 % 0.00 in
15:29 103.8 °F 64.3 °F 29.72 in WNW 3.5 mph 3.5 mph 28 % 0.00 in
15:34 103.1 °F 64.7 °F 29.71 in WNW 2.3 mph 2.3 mph 29 % 0.00 in
15:39 103.3 °F 65.8 °F 29.71 in NW 3.5 mph 3.5 mph 30 % 0.00 in
15:44 103.2 °F 64.8 °F 29.71 in WNW 3.5 mph 3.5 mph 29 % 0.00 in
15:49 103.3 °F 63.9 °F 29.71 in NW 5.0 mph 5.0 mph 28 % 0.00 in
15:54 102.8 °F 63.4 °F 29.71 in NW 6.9 mph 6.9 mph 28 % 0.00 in
16:00 102.5 °F 63.2 °F 29.71 in WNW 3.5 mph 3.5 mph 28 % 0.00 in
16:05 102.4 °F 64.1 °F 29.71 in NNW 4.6 mph 4.6 mph 29 % 0.00 in
16:10 102.0 °F 64.7 °F 29.71 in NW 4.6 mph 4.6 mph 30 % 0.00 in
16:15 102.0 °F 64.7 °F 29.71 in NW 3.5 mph 3.5 mph 30 % 0.00 in
16:20 102.0 °F 66.6 °F 29.71 in NNW 3.5 mph 3.5 mph 32 % 0.00 in
16:25 102.1 °F 64.8 °F 29.70 in NW 3.5 mph 3.5 mph 30 % 0.00 in
16:30 102.2 °F 63.9 °F 29.70 in North 3.5 mph 3.5 mph 29 % 0.00 in
16:35 102.3 °F 64.0 °F 29.70 in NW 3.5 mph 3.5 mph 29 % 0.00 in
16:40 102.3 °F 66.8 °F 29.70 in West 3.5 mph 3.5 mph 32 % 0.00 in
16:45 102.4 °F 64.1 °F 29.70 in NW 3.5 mph 3.5 mph 29 % 0.00 in
16:50 102.6 °F 63.3 °F 29.70 in NW 5.8 mph 5.8 mph 28 % 0.00 in
16:55 102.6 °F 64.3 °F 29.70 in NW 3.5 mph 3.5 mph 29 % 0.00 in
17:00 102.6 °F 63.3 °F 29.69 in NNW 4.6 mph 4.6 mph 28 % 0.00 in
17:05 102.7 °F 63.3 °F 29.69 in WSW 2.3 mph 2.3 mph 28 % 0.00 in
17:10 103.0 °F 64.6 °F 29.69 in NNW 3.5 mph 3.5 mph 29 % 0.00 in
17:15 103.1 °F 64.7 °F 29.69 in NNW 3.5 mph 3.5 mph 29 % 0.00 in
17:20 102.9 °F 63.5 °F 29.69 in NNW 5.8 mph 5.8 mph 28 % 0.00 in
17:25 102.9 °F 63.5 °F 29.69 in NW 3.5 mph 3.5 mph 28 % 0.00 in
17:30 103.1 °F 60.5 °F 29.69 in WNW 4.6 mph 4.6 mph 25 % 0.00 in
17:35 103.0 °F 60.4 °F 29.68 in NW 3.5 mph 3.5 mph 25 % 0.00 in
17:40 102.9 °F 60.3 °F 29.68 in NW 3.5 mph 3.5 mph 25 % 0.00 in
17:45 102.6 °F 58.9 °F 29.68 in NW 3.0 mph 3.0 mph 24 % 0.00 in
17:50 102.3 °F 58.7 °F 29.68 in NW 4.6 mph 4.6 mph 24 % 0.00 in
17:55 102.3 °F 57.5 °F 29.68 in NW 4.6 mph 4.6 mph 23 % 0.00 in
18:00 102.2 °F 59.7 °F 29.68 in NNE 5.0 mph 5.0 mph 25 % 0.00 in
18:05 102.3 °F 58.7 °F 29.68 in WNW 2.3 mph 2.3 mph 24 % 0.00 in
18:10 102.2 °F 58.6 °F 29.68 in NW 5.8 mph 5.8 mph 24 % 0.00 in
18:15 102.2 °F 60.8 °F 29.68 in NW 3.5 mph 3.5 mph 26 % 0.00 in
18:20 101.9 °F 58.3 °F 29.68 in NW 3.5 mph 3.5 mph 24 % 0.00 in
18:25 101.5 °F 59.1 °F 29.68 in West 5.8 mph 5.8 mph 25 % 0.00 in
18:30 101.0 °F 58.7 °F 29.68 in NW 3.5 mph 3.5 mph 25 % 0.00 in
18:35 100.7 °F 58.5 °F 29.68 in NW 3.5 mph 3.5 mph 25 % 0.00 in
18:40 100.6 °F 58.4 °F 29.68 in North 3.5 mph 3.5 mph 25 % 0.00 in
18:45 100.1 °F 60.1 °F 29.68 in NW 3.5 mph 3.5 mph 27 % 0.00 in
18:50 99.6 °F 59.7 °F 29.68 in WNW 3.5 mph 3.5 mph 27 % 0.00 in
18:55 99.1 °F 59.3 °F 29.68 in NW 2.3 mph 2.3 mph 27 % 0.00 in
19:00 98.7 °F 59.9 °F 29.68 in WNW 3.5 mph 3.5 mph 28 % 0.00 in
19:05 98.2 °F 60.5 °F 29.68 in NW 3.5 mph 3.5 mph 29 % 0.00 in
19:10 97.7 °F 60.1 °F 29.68 in NW 3.5 mph 3.5 mph 29 % 0.00 in
19:15 97.5 °F 60.9 °F 29.68 in NW 3.5 mph 3.5 mph 30 % 0.00 in
19:20 97.3 °F 61.6 °F 29.68 in WNW 3.5 mph 3.5 mph 31 % 0.00 in
19:25 96.6 °F 63.6 °F 29.68 in WNW 3.5 mph 3.5 mph 34 % 0.00 in
19:30 95.9 °F 62.2 °F 29.68 in NW 2.3 mph 2.3 mph 33 % 0.00 in
19:35 95.4 °F 61.7 °F 29.68 in WNW 2.3 mph 2.3 mph 33 % 0.00 in
19:40 95.0 °F 62.2 °F 29.68 in NW 3.5 mph 3.5 mph 34 % 0.00 in
19:45 94.3 °F 61.6 °F 29.68 in WNW 2.3 mph 2.3 mph 34 % 0.00 in
19:50 93.9 °F 61.3 °F 29.68 in North 4.6 mph 4.6 mph 34 % 0.00 in
19:55 93.6 °F 61.0 °F 29.68 in NW 3.5 mph 3.5 mph 34 % 0.00 in
20:00 93.4 °F 60.8 °F 29.68 in WNW 3.5 mph 3.5 mph 34 % 0.00 in
20:05 93.0 °F 60.5 °F 29.68 in NW 2.3 mph 2.3 mph 34 % 0.00 in
20:10 92.5 °F 60.9 °F 29.68 in NW 1.2 mph 1.3 mph 35 % 0.00 in
20:15 92.2 °F 60.6 °F 29.69 in NW 3.5 mph 3.5 mph 35 % 0.00 in
20:20 91.7 °F 61.7 °F 29.69 in NW 2.3 mph 2.3 mph 37 % 0.00 in
20:25 91.3 °F 59.8 °F 29.69 in NW 3.0 mph 3.0 mph 35 % 0.00 in
20:30 91.0 °F 58.7 °F 29.69 in NW 2.3 mph 2.3 mph 34 % 0.00 in
20:36 90.7 °F 56.8 °F 29.69 in WNW 3.5 mph 3.5 mph 32 % 0.00 in
20:41 90.4 °F 56.5 °F 29.70 in NW 3.5 mph 3.5 mph 32 % 0.00 in
20:46 90.5 °F 54.8 °F 29.70 in NNW 3.5 mph 3.5 mph 30 % 0.00 in
20:51 90.5 °F 54.8 °F 29.70 in WNW 3.5 mph 3.5 mph 30 % 0.00 in
20:56 90.5 °F 54.8 °F 29.70 in WNW 2.3 mph 2.3 mph 30 % 0.00 in
21:01 90.2 °F 55.5 °F 29.71 in NW 1.2 mph 1.2 mph 31 % 0.00 in
21:06 89.7 °F 55.0 °F 29.71 in NW 1.2 mph 1.2 mph 31 % 0.00 in
21:11 89.4 °F 55.7 °F 29.71 in Calm     32 % 0.00 in
21:16 88.8 °F 56.0 °F 29.72 in NW 1.2 mph 1.2 mph 33 % 0.00 in
21:21 88.1 °F 56.2 °F 29.72 in Calm     34 % 0.00 in
21:26 87.7 °F 55.9 °F 29.72 in Calm     34 % 0.00 in
21:31 87.2 °F 53.7 °F 29.72 in Calm     32 % 0.00 in
21:36 87.7 °F 54.2 °F 29.73 in Calm     32 % 0.00 in
21:41 88.3 °F 53.8 °F 29.73 in Calm     31 % 0.00 in
21:46 88.2 °F 55.5 °F 29.73 in Calm     33 % 0.00 in
21:51 87.7 °F 54.2 °F 29.73 in NW 1.2 mph 1.2 mph 32 % 0.00 in
21:56 87.7 °F 54.2 °F 29.74 in NW 1.2 mph 1.2 mph 32 % 0.00 in
22:01 88.1 °F 53.7 °F 29.74 in NNW 3.5 mph 3.5 mph 31 % 0.00 in
22:06 88.6 °F 54.1 °F 29.74 in NW 2.3 mph 2.3 mph 31 % 0.00 in
22:11 88.8 °F 54.3 °F 29.74 in NW 2.3 mph 2.3 mph 31 % 0.00 in
22:16 88.6 °F 55.0 °F 29.74 in NW 1.2 mph 1.2 mph 32 % 0.00 in
22:21 88.0 °F 54.4 °F 29.74 in NW 2.3 mph 2.3 mph 32 % 0.00 in
22:26 87.2 °F 54.6 °F 29.74 in NW 1.2 mph 1.2 mph 33 % 0.00 in
22:31 86.3 °F 55.4 °F 29.74 in NW 1.2 mph 1.2 mph 35 % 0.00 in
22:36 85.9 °F 54.3 °F 29.74 in NW 2.3 mph 2.3 mph 34 % 0.00 in
22:41 85.8 °F 55.0 °F 29.74 in NW 2.3 mph 2.3 mph 35 % 0.00 in
22:46 85.6 °F 54.8 °F 29.74 in WNW 3.5 mph 3.5 mph 35 % 0.00 in
22:51 85.2 °F 55.2 °F 29.74 in NW 2.3 mph 2.3 mph 36 % 0.00 in
22:56 84.8 °F 55.6 °F 29.75 in NW 2.3 mph 2.3 mph 37 % 0.00 in
23:01 84.5 °F 55.4 °F 29.75 in NW 2.3 mph 2.3 mph 37 % 0.00 in
23:06 84.3 °F 55.2 °F 29.75 in WNW 2.3 mph 2.3 mph 37 % 0.00 in
23:11 84.2 °F 55.8 °F 29.75 in NNW 2.3 mph 2.3 mph 38 % 0.00 in
23:16 84.3 °F 53.7 °F 29.75 in NW 2.3 mph 2.3 mph 35 % 0.00 in
23:21 84.1 °F 55.0 °F 29.75 in NW 2.3 mph 2.3 mph 37 % 0.00 in
23:26 83.6 °F 54.6 °F 29.75 in NW 1.2 mph 1.2 mph 37 % 0.00 in
23:31 83.4 °F 54.4 °F 29.75 in WNW 2.3 mph 2.3 mph 37 % 0.00 in
23:36 83.4 °F 54.4 °F 29.75 in NW 2.3 mph 2.3 mph 37 % 0.00 in
23:41 83.4 °F 54.4 °F 29.75 in NW 2.3 mph 2.3 mph 37 % 0.00 in
23:46 83.3 °F 53.6 °F 29.75 in NW 2.3 mph 2.3 mph 36 % 0.00 in
23:51 83.0 °F 54.0 °F 29.75 in NW 1.2 mph 1.2 mph 37 % 0.00 in
23:56 83.0 °F 54.0 °F 29.76 in NW 1.2 mph   37 % 0.00 in
Park Place, Exeter, Tulare County, California, USA
Compliments of Weather Underground - 2.75 mb